Time;durP1;ratioP1;P1;durP2;ratioP2;P2;SDS_P1;SDS_P2;PMS_P1;PMS_P2;Temp;Humidity;BMP_temperature;BMP_pressure;BME280_temperature;BME280_humidity;BME280_pressure;Samples;Min_cycle;Max_cycle;Signal;HPM_P1;HPM_P2
2022/03/25 00:01:20;;;;;;;;;58.75;45.00;;;;;;;;5060234;28;45389;-75
2022/03/25 00:03:46;;;;;;;;;57.25;45.00;;;;;;;;5066129;28;45299;-77
2022/03/25 00:06:11;;;;;;;;;59.25;45.00;;;;;;;;5068704;28;45470;-77
2022/03/25 00:08:37;;;;;;;;;55.75;45.00;;;;;;;;5057574;28;45496;-76
2022/03/25 00:11:02;;;;;;;;;57.25;45.50;;;;;;;;5057445;28;45389;-76
2022/03/25 00:13:27;;;;;;;;;56.00;45.00;;;;;;;;5062077;28;45617;-75
2022/03/25 00:15:52;;;;;;;;;55.25;45.00;;;;;;;;5055051;28;45912;-77
2022/03/25 00:18:18;;;;;;;;;57.00;43.00;;;;;;;;5055057;28;45290;-76
2022/03/25 00:20:45;;;;;;;;;55.00;38.75;;;;;;;;5054180;28;45239;-77
2022/03/25 00:23:10;;;;;;;;;57.75;43.75;;;;;;;;5055877;28;45581;-76
2022/03/25 00:25:35;;;;;;;;;50.50;42.50;;;;;;;;5057437;28;45379;-76
2022/03/25 00:28:01;;;;;;;;;54.75;44.00;;;;;;;;5055220;28;45383;-77
2022/03/25 00:30:26;;;;;;;;;54.50;43.50;;;;;;;;5055337;28;45362;-77
2022/03/25 00:32:52;;;;;;;;;56.75;44.00;;;;;;;;5056338;28;45533;-77
2022/03/25 00:35:17;;;;;;;;;54.75;44.50;;;;;;;;5053730;28;46355;-76
2022/03/25 00:37:42;;;;;;;;;51.75;42.75;;;;;;;;5058851;28;45445;-74
2022/03/25 00:40:08;;;;;;;;;53.25;41.75;;;;;;;;5058915;28;45494;-75
2022/03/25 00:42:34;;;;;;;;;51.50;43.75;;;;;;;;5057409;28;45263;-74
2022/03/25 00:45:03;;;;;;;;;54.50;44.00;;;;;;;;5055397;28;46184;-76
2022/03/25 00:47:28;;;;;;;;;56.25;44.00;;;;;;;;5055455;28;45471;-76
2022/03/25 00:49:53;;;;;;;;;53.75;44.00;;;;;;;;5056683;28;45508;-76
2022/03/25 00:52:19;;;;;;;;;57.50;46.50;;;;;;;;5054801;28;45341;-75
2022/03/25 00:54:53;;;;;;;;;56.50;44.50;;;;;;;;5055296;28;47692;-76
2022/03/25 00:57:19;;;;;;;;;59.00;47.25;;;;;;;;5055426;28;45851;-75
2022/03/25 00:59:44;;;;;;;;;61.75;48.25;;;;;;;;5055086;28;45693;-76
2022/03/25 01:02:10;;;;;;;;;57.00;45.50;;;;;;;;5036655;28;45557;-75
2022/03/25 01:04:35;;;;;;;;;61.50;45.00;;;;;;;;5069537;28;46599;-76
2022/03/25 01:07:00;;;;;;;;;54.75;43.75;;;;;;;;5076207;28;45644;-76
2022/03/25 01:09:25;;;;;;;;;58.50;46.25;;;;;;;;5076680;27;45529;-76
2022/03/25 01:11:51;;;;;;;;;57.25;43.75;;;;;;;;5076506;27;45534;-76
2022/03/25 01:14:16;;;;;;;;;57.75;45.50;;;;;;;;5076014;28;46423;-74
2022/03/25 01:16:41;;;;;;;;;58.00;43.25;;;;;;;;5076955;27;45460;-76
2022/03/25 01:19:06;;;;;;;;;53.25;43.25;;;;;;;;5076444;27;45539;-75
2022/03/25 01:21:32;;;;;;;;;55.50;44.25;;;;;;;;5076166;28;45303;-75
2022/03/25 01:23:57;;;;;;;;;58.75;46.50;;;;;;;;5075980;27;46193;-75
2022/03/25 01:26:23;;;;;;;;;56.00;44.50;;;;;;;;5075845;28;45378;-75
2022/03/25 01:28:48;;;;;;;;;54.00;43.00;;;;;;;;5076444;28;45403;-75
2022/03/25 01:31:14;;;;;;;;;56.75;45.00;;;;;;;;5076749;28;45328;-74
2022/03/25 01:33:40;;;;;;;;;55.00;45.25;;;;;;;;5075558;28;46285;-76
2022/03/25 01:36:06;;;;;;;;;57.25;45.50;;;;;;;;5075725;28;45319;-77
2022/03/25 01:38:32;;;;;;;;;62.25;46.75;;;;;;;;5075153;28;45361;-75
2022/03/25 01:40:57;;;;;;;;;59.75;46.00;;;;;;;;5076040;28;45318;-77
2022/03/25 01:43:23;;;;;;;;;57.25;46.00;;;;;;;;5075629;27;46136;-77
2022/03/25 01:45:49;;;;;;;;;58.00;44.50;;;;;;;;5075659;28;45935;-78
2022/03/25 01:48:16;;;;;;;;;53.75;42.25;;;;;;;;5075611;28;45296;-76
2022/03/25 01:50:43;;;;;;;;;63.75;46.75;;;;;;;;5075728;27;45359;-75
2022/03/25 01:53:16;;;;;;;;;51.75;39.50;;;;;;;;5075455;28;45511;-77
2022/03/25 01:55:50;;;;;;;;;61.00;46.75;;;;;;;;5076212;28;45470;-77
2022/03/25 01:58:15;;;;;;;;;58.00;46.00;;;;;;;;5075272;28;45359;-74
2022/03/25 02:00:41;;;;;;;;;59.75;45.50;;;;;;;;5075558;27;45518;-77
2022/03/25 02:03:06;;;;;;;;;58.50;45.50;;;;;;;;5074691;28;46041;-75
2022/03/25 02:05:31;;;;;;;;;58.50;44.50;;;;;;;;5075352;28;45329;-76
2022/03/25 02:07:56;;;;;;;;;55.00;43.75;;;;;;;;5076107;28;45477;-76
2022/03/25 02:10:22;;;;;;;;;61.00;46.50;;;;;;;;5075694;27;45410;-76
2022/03/25 02:12:47;;;;;;;;;55.00;44.25;;;;;;;;5074963;28;46595;-74
2022/03/25 02:15:13;;;;;;;;;55.75;44.50;;;;;;;;5075557;28;45478;-76
2022/03/25 02:17:38;;;;;;;;;62.00;46.75;;;;;;;;5075596;28;45435;-77
2022/03/25 02:20:08;;;;;;;;;61.50;47.75;;;;;;;;5075884;27;45467;-74
2022/03/25 02:22:34;;;;;;;;;58.75;44.50;;;;;;;;5075944;28;46380;-75
2022/03/25 02:25:00;;;;;;;;;56.75;46.25;;;;;;;;5074881;27;45909;-76
2022/03/25 02:27:25;;;;;;;;;59.00;46.75;;;;;;;;5075236;28;45358;-77
2022/03/25 02:29:50;;;;;;;;;62.25;47.50;;;;;;;;5056924;28;47776;-76
2022/03/25 02:32:15;;;;;;;;;59.75;43.50;;;;;;;;5058881;28;46283;-75
2022/03/25 02:34:41;;;;;;;;;59.75;47.25;;;;;;;;5075668;28;45454;-76
2022/03/25 02:37:08;;;;;;;;;64.75;50.50;;;;;;;;5075209;28;45500;-76
2022/03/25 02:39:33;;;;;;;;;65.25;47.50;;;;;;;;5074905;27;45261;-76
2022/03/25 02:41:58;;;;;;;;;61.50;49.25;;;;;;;;5075200;28;45404;-76
2022/03/25 02:44:24;;;;;;;;;55.75;42.50;;;;;;;;5075845;27;45425;-78
2022/03/25 02:46:49;;;;;;;;;58.00;44.25;;;;;;;;5085989;28;45443;-75
2022/03/25 02:49:15;;;;;;;;;51.50;39.00;;;;;;;;5082783;28;45268;-76
2022/03/25 02:51:41;;;;;;;;;58.75;45.75;;;;;;;;5080621;27;46038;-75
2022/03/25 02:54:06;;;;;;;;;55.75;43.00;;;;;;;;5079633;27;45532;-76
2022/03/25 02:56:32;;;;;;;;;60.00;45.75;;;;;;;;5075209;28;45328;-75
2022/03/25 02:58:58;;;;;;;;;59.50;48.00;;;;;;;;5075058;27;45252;-73
2022/03/25 03:01:23;;;;;;;;;58.75;43.50;;;;;;;;5075159;28;46321;-75
2022/03/25 03:03:48;;;;;;;;;51.75;40.50;;;;;;;;5074258;27;45504;-75
2022/03/25 03:06:14;;;;;;;;;53.75;45.25;;;;;;;;5074397;28;45498;-76
2022/03/25 03:08:41;;;;;;;;;58.75;46.50;;;;;;;;5074574;28;45377;-74
2022/03/25 03:11:07;;;;;;;;;56.75;44.00;;;;;;;;5074323;28;46396;-74
2022/03/25 03:13:32;;;;;;;;;54.00;43.00;;;;;;;;5074299;28;45418;-74
2022/03/25 03:15:58;;;;;;;;;56.50;45.25;;;;;;;;5074444;28;45386;-74
2022/03/25 03:18:23;;;;;;;;;56.25;43.75;;;;;;;;5074536;28;45471;-74
2022/03/25 03:20:48;;;;;;;;;53.25;43.00;;;;;;;;5074660;28;47151;-74
2022/03/25 03:23:13;;;;;;;;;58.50;44.75;;;;;;;;5074163;28;45453;-74
2022/03/25 03:25:39;;;;;;;;;56.75;45.50;;;;;;;;5074630;28;45353;-74
2022/03/25 03:28:04;;;;;;;;;52.75;41.25;;;;;;;;5074541;28;45312;-73
2022/03/25 03:30:30;;;;;;;;;53.75;42.50;;;;;;;;5074165;28;45275;-75
2022/03/25 03:32:57;;;;;;;;;52.75;43.00;;;;;;;;5074336;28;45454;-74
2022/03/25 03:35:24;;;;;;;;;47.00;36.50;;;;;;;;5074014;28;45303;-74
2022/03/25 03:37:49;;;;;;;;;61.25;46.75;;;;;;;;5074425;28;45402;-76
2022/03/25 03:40:15;;;;;;;;;57.25;44.00;;;;;;;;5073691;28;45330;-75
2022/03/25 03:42:40;;;;;;;;;57.00;44.00;;;;;;;;5073966;27;45667;-75
2022/03/25 03:45:07;;;;;;;;;58.50;44.50;;;;;;;;5073956;28;45540;-75
2022/03/25 03:47:32;;;;;;;;;58.00;45.25;;;;;;;;5073830;28;45418;-75
2022/03/25 03:49:57;;;;;;;;;59.50;46.75;;;;;;;;5074142;28;45974;-76
2022/03/25 03:52:23;;;;;;;;;59.25;44.00;;;;;;;;5074041;28;45389;-75
2022/03/25 03:54:49;;;;;;;;;50.75;41.75;;;;;;;;5073509;28;45513;-74
2022/03/25 03:57:14;;;;;;;;;60.75;47.50;;;;;;;;5073894;28;45434;-74
2022/03/25 03:59:39;;;;;;;;;58.00;43.50;;;;;;;;5073672;27;47010;-74
2022/03/25 04:02:04;;;;;;;;;55.75;44.50;;;;;;;;5074128;28;45271;-76
2022/03/25 04:04:30;;;;;;;;;50.25;41.50;;;;;;;;5074495;28;45284;-76
2022/03/25 04:06:55;;;;;;;;;57.25;46.25;;;;;;;;5053729;28;45332;-76
2022/03/25 04:09:20;;;;;;;;;58.00;46.00;;;;;;;;5076450;28;45433;-75
2022/03/25 04:11:45;;;;;;;;;57.25;45.75;;;;;;;;5074060;28;45354;-75
2022/03/25 04:14:11;;;;;;;;;59.50;44.75;;;;;;;;5073742;28;45410;-76
2022/03/25 04:16:37;;;;;;;;;59.00;45.00;;;;;;;;5074022;28;45540;-74
2022/03/25 04:21:37;;;;;;;;;59.50;47.75;;;;;;;;5486731;22;46142;-74
2022/03/25 04:24:03;;;;;;;;;57.25;44.00;;;;;;;;5051367;28;45390;-75
2022/03/25 04:26:28;;;;;;;;;53.00;41.00;;;;;;;;5054150;28;45418;-74
2022/03/25 04:28:53;;;;;;;;;57.75;46.00;;;;;;;;5045941;28;46174;-75
2022/03/25 04:31:19;;;;;;;;;58.00;45.50;;;;;;;;5045358;28;45493;-76
2022/03/25 04:33:45;;;;;;;;;57.50;46.50;;;;;;;;5045769;28;45326;-73
2022/03/25 04:36:10;;;;;;;;;61.75;45.75;;;;;;;;5041563;28;45425;-74
2022/03/25 04:38:35;;;;;;;;;59.00;45.75;;;;;;;;5022672;28;46326;-75
2022/03/25 04:41:00;;;;;;;;;55.25;43.00;;;;;;;;5056452;28;45277;-75
2022/03/25 04:43:26;;;;;;;;;63.00;46.25;;;;;;;;5049951;28;45599;-74
2022/03/25 04:45:51;;;;;;;;;59.00;46.25;;;;;;;;5045089;28;45528;-74
2022/03/25 04:48:16;;;;;;;;;58.50;46.25;;;;;;;;5042274;28;46928;-75
2022/03/25 04:50:43;;;;;;;;;57.75;44.25;;;;;;;;5040547;28;45564;-76
2022/03/25 04:53:08;;;;;;;;;54.50;43.25;;;;;;;;5055730;28;45294;-76
2022/03/25 04:55:34;;;;;;;;;57.00;42.25;;;;;;;;5056622;28;45541;-75
2022/03/25 04:57:59;;;;;;;;;58.25;46.00;;;;;;;;5056279;28;45314;-75
2022/03/25 05:00:24;;;;;;;;;57.25;44.75;;;;;;;;5056333;28;45319;-75
2022/03/25 05:02:49;;;;;;;;;64.00;47.00;;;;;;;;5039848;28;45239;-74
2022/03/25 05:05:15;;;;;;;;;53.25;43.50;;;;;;;;5043172;28;45345;-75
2022/03/25 05:07:41;;;;;;;;;61.00;46.25;;;;;;;;5044172;28;47470;-74
2022/03/25 05:10:06;;;;;;;;;53.00;42.00;;;;;;;;5044599;28;45618;-74
2022/03/25 05:12:32;;;;;;;;;59.00;45.50;;;;;;;;5043818;28;46037;-74
2022/03/25 05:14:57;;;;;;;;;60.75;45.00;;;;;;;;5022179;28;45538;-74
2022/03/25 05:17:22;;;;;;;;;52.00;44.00;;;;;;;;5041528;28;45347;-73
2022/03/25 05:19:48;;;;;;;;;54.25;43.75;;;;;;;;5044604;28;45371;-74
2022/03/25 05:22:14;;;;;;;;;61.25;47.00;;;;;;;;5044306;28;45455;-73
2022/03/25 05:24:39;;;;;;;;;54.00;41.75;;;;;;;;5044477;28;45493;-74
2022/03/25 05:27:04;;;;;;;;;58.75;47.25;;;;;;;;5039631;28;45376;-74
2022/03/25 05:29:30;;;;;;;;;61.25;49.25;;;;;;;;5056219;28;45422;-75
2022/03/25 05:31:55;;;;;;;;;83.33;71.67;;;;;;;;5045227;28;45398;-74
2022/03/25 05:34:20;;;;;;;;;55.33;37.33;;;;;;;;5045384;28;45471;-74
2022/03/25 05:36:45;;;;;;;;;75.67;56.67;;;;;;;;5044677;28;46120;-74
2022/03/25 05:39:11;;;;;;;;;63.00;48.00;;;;;;;;5040743;28;45327;-75
2022/03/25 05:41:37;;;;;;;;;60.50;46.00;;;;;;;;5055895;28;45517;-75
2022/03/25 05:44:03;;;;;;;;;54.25;46.25;;;;;;;;5055924;28;45253;-75
2022/03/25 05:46:28;;;;;;;;;59.00;46.25;;;;;;;;5048374;28;46280;-75
2022/03/25 05:48:53;;;;;;;;;63.50;49.00;;;;;;;;5044143;28;45596;-75
2022/03/25 05:51:19;;;;;;;;;54.00;43.00;;;;;;;;5040729;28;45501;-75
2022/03/25 05:53:44;;;;;;;;;59.25;45.25;;;;;;;;5039288;28;45402;-75
2022/03/25 05:56:11;;;;;;;;;58.00;45.25;;;;;;;;5042755;28;47164;-76
2022/03/25 05:58:37;;;;;;;;;65.00;48.75;;;;;;;;5044144;28;45383;-77
2022/03/25 06:01:03;;;;;;;;;64.00;47.50;;;;;;;;5047427;28;45482;-77
2022/03/25 06:03:28;;;;;;;;;63.25;46.75;;;;;;;;5055429;28;45387;-74
2022/03/25 06:05:53;;;;;;;;;56.50;45.25;;;;;;;;5038372;28;45934;-75
2022/03/25 06:08:19;;;;;;;;;64.00;49.25;;;;;;;;5041356;28;45311;-75
2022/03/25 06:10:44;;;;;;;;;55.00;45.00;;;;;;;;5043820;28;45479;-77
2022/03/25 06:13:10;;;;;;;;;52.75;43.25;;;;;;;;5043681;28;45509;-77
2022/03/25 06:15:35;;;;;;;;;57.00;46.50;;;;;;;;5042487;28;46216;-76
2022/03/25 06:18:00;;;;;;;;;60.00;46.25;;;;;;;;5038577;28;45322;-77
2022/03/25 06:20:27;;;;;;;;;66.00;50.50;;;;;;;;5036530;28;45242;-77
2022/03/25 06:22:53;;;;;;;;;64.50;47.50;;;;;;;;5054470;28;45375;-78
2022/03/25 06:25:18;;;;;;;;;61.75;48.50;;;;;;;;5048904;28;46053;-77
2022/03/25 06:27:44;;;;;;;;;62.50;48.00;;;;;;;;5042914;28;45307;-76
2022/03/25 06:30:10;;;;;;;;;59.75;47.75;;;;;;;;5039383;28;45417;-76
2022/03/25 06:32:35;;;;;;;;;56.00;42.00;;;;;;;;5039202;28;45487;-76
2022/03/25 06:35:01;;;;;;;;;64.75;49.50;;;;;;;;5042772;28;45458;-78
2022/03/25 06:37:26;;;;;;;;;59.75;45.25;;;;;;;;5042969;28;45398;-75
2022/03/25 06:39:51;;;;;;;;;62.50;46.50;;;;;;;;5043726;28;45525;-76
2022/03/25 06:42:16;;;;;;;;;61.25;47.50;;;;;;;;5040408;28;45340;-75
2022/03/25 06:44:42;;;;;;;;;61.00;48.75;;;;;;;;5021508;28;46189;-76
2022/03/25 06:47:07;;;;;;;;;60.25;47.50;;;;;;;;5042790;28;45386;-77
2022/03/25 06:49:32;;;;;;;;;60.25;46.25;;;;;;;;5042216;28;45612;-75
2022/03/25 06:51:57;;;;;;;;;59.50;46.25;;;;;;;;5042971;28;45380;-75
2022/03/25 06:54:23;;;;;;;;;63.25;48.25;;;;;;;;5023415;28;47977;-76
2022/03/25 06:56:48;;;;;;;;;61.25;48.00;;;;;;;;5054205;28;45422;-76
2022/03/25 06:59:14;;;;;;;;;51.25;42.50;;;;;;;;5041278;28;45845;-78
2022/03/25 07:01:39;;;;;;;;;56.75;43.50;;;;;;;;5050760;28;45529;-78
2022/03/25 07:04:05;;;;;;;;;60.50;46.50;;;;;;;;5049930;28;46922;-76
2022/03/25 07:06:31;;;;;;;;;59.00;46.50;;;;;;;;5041150;28;45324;-76
2022/03/25 07:08:57;;;;;;;;;65.00;50.00;;;;;;;;5037770;28;45369;-78
2022/03/25 07:11:23;;;;;;;;;61.00;48.75;;;;;;;;5040263;28;45412;-77
2022/03/25 07:13:49;;;;;;;;;61.75;49.50;;;;;;;;5042322;28;45535;-76
2022/03/25 07:16:14;;;;;;;;;64.25;48.75;;;;;;;;5042733;28;45402;-76
2022/03/25 07:18:40;;;;;;;;;60.00;47.25;;;;;;;;5042746;28;45205;-77
2022/03/25 07:21:05;;;;;;;;;64.50;47.25;;;;;;;;5037704;28;45368;-75
2022/03/25 07:23:31;;;;;;;;;62.00;48.25;;;;;;;;5038994;28;45439;-85
2022/03/25 07:25:56;;;;;;;;;60.00;46.25;;;;;;;;5055718;28;45397;-85
2022/03/25 07:28:21;;;;;;;;;64.50;49.00;;;;;;;;5048014;28;45297;-78
2022/03/25 07:30:46;;;;;;;;;64.25;51.50;;;;;;;;5043333;28;45423;-78
2022/03/25 07:33:12;;;;;;;;;60.75;48.25;;;;;;;;5053837;28;45987;-79
2022/03/25 07:35:37;;;;;;;;;63.00;47.25;;;;;;;;5055105;28;45365;-80
2022/03/25 07:38:06;;;;;;;;;57.25;44.50;;;;;;;;5043728;28;45450;-80
2022/03/25 07:40:31;;;;;;;;;66.25;50.00;;;;;;;;5043761;28;45202;-80
2022/03/25 07:42:58;;;;;;;;;62.50;48.50;;;;;;;;5045669;28;47146;-80
2022/03/25 07:45:23;;;;;;;;;61.00;46.75;;;;;;;;5054413;28;45369;-80
2022/03/25 07:47:49;;;;;;;;;66.75;49.75;;;;;;;;5054115;28;45360;-80
2022/03/25 07:50:18;;;;;;;;;64.00;49.25;;;;;;;;5042850;28;45302;-79
2022/03/25 07:52:44;;;;;;;;;60.25;49.00;;;;;;;;5044211;28;45404;-81
2022/03/25 07:55:09;;;;;;;;;66.75;51.00;;;;;;;;5049205;28;45482;-79
2022/03/25 07:57:36;;;;;;;;;56.75;45.00;;;;;;;;5057057;28;45546;-79
2022/03/25 08:00:03;;;;;;;;;64.50;50.75;;;;;;;;5039912;28;45517;-82
2022/03/25 08:02:29;;;;;;;;;61.25;48.50;;;;;;;;5058996;28;45301;-81
2022/03/25 08:04:54;;;;;;;;;63.00;49.50;;;;;;;;5065339;28;44776;-78
2022/03/25 08:07:19;;;;;;;;;67.50;50.25;;;;;;;;5064371;28;45407;-82
2022/03/25 08:09:44;;;;;;;;;63.50;50.50;;;;;;;;5062506;28;45653;-83
2022/03/25 08:12:10;;;;;;;;;67.50;50.00;;;;;;;;5061049;28;45385;-83
2022/03/25 08:14:36;;;;;;;;;66.75;50.75;;;;;;;;5044281;28;45307;-81
2022/03/25 08:17:01;;;;;;;;;61.25;46.50;;;;;;;;5058897;28;45545;-82
2022/03/25 08:19:26;;;;;;;;;62.50;48.50;;;;;;;;5052708;28;45378;-81
2022/03/25 08:21:52;;;;;;;;;65.00;48.75;;;;;;;;5048946;28;47443;-83
2022/03/25 08:29:46;;;;;;;;;61.00;47.25;;;;;;;;5059154;28;45363;-81
2022/03/25 08:32:11;;;;;;;;;59.75;45.00;;;;;;;;5044927;28;45510;-81
2022/03/25 08:34:36;;;;;;;;;62.75;49.00;;;;;;;;5045337;28;45443;-81
2022/03/25 08:37:01;;;;;;;;;61.50;48.25;;;;;;;;5048778;28;45343;-80
2022/03/25 08:39:27;;;;;;;;;58.25;46.50;;;;;;;;5056567;28;45876;-79
2022/03/25 08:41:52;;;;;;;;;65.25;50.00;;;;;;;;5040808;28;46826;-80
2022/03/25 08:44:17;;;;;;;;;62.75;48.00;;;;;;;;5056390;28;45439;-80
2022/03/25 08:46:42;;;;;;;;;57.75;45.00;;;;;;;;5048162;28;46842;-81
2022/03/25 08:49:10;;;;;;;;;61.50;47.75;;;;;;;;5048625;28;45319;-80
2022/03/25 08:51:35;;;;;;;;;54.50;43.75;;;;;;;;5055833;28;46974;-81
2022/03/25 08:54:00;;;;;;;;;63.50;50.00;;;;;;;;5040599;28;45161;-80
2022/03/25 08:56:27;;;;;;;;;63.75;49.25;;;;;;;;5058363;28;45448;-83
2022/03/25 08:58:54;;;;;;;;;61.25;47.00;;;;;;;;5056685;28;45445;-80
2022/03/25 09:01:20;;;;;;;;;70.25;52.75;;;;;;;;5054518;28;46358;-79
2022/03/25 09:03:45;;;;;;;;;68.00;51.75;;;;;;;;5054535;28;45351;-79
2022/03/25 09:06:11;;;;;;;;;56.75;44.50;;;;;;;;5060300;28;45285;-85
2022/03/25 09:08:36;;;;;;;;;60.50;48.75;;;;;;;;5060710;28;45401;-82
2022/03/25 09:11:03;;;;;;;;;55.00;42.25;;;;;;;;5057498;28;49524;-80
2022/03/25 09:13:28;;;;;;;;;67.00;52.50;;;;;;;;5055566;28;45433;-80
2022/03/25 09:15:54;;;;;;;;;63.75;49.00;;;;;;;;5038658;28;45541;-81
2022/03/25 09:18:19;;;;;;;;;66.00;51.00;;;;;;;;5056492;28;45456;-83
2022/03/25 09:20:44;;;;;;;;;64.25;48.25;;;;;;;;5042119;28;46358;-82
2022/03/25 09:23:10;;;;;;;;;64.25;51.00;;;;;;;;5026352;28;45582;-83
2022/03/25 09:25:35;;;;;;;;;67.25;49.00;;;;;;;;5044652;28;45336;-83
2022/03/25 09:28:01;;;;;;;;;58.50;48.25;;;;;;;;5046937;28;45322;-83
2022/03/25 09:30:26;;;;;;;;;66.25;51.25;;;;;;;;5054903;28;46211;-80
2022/03/25 09:32:51;;;;;;;;;67.00;53.75;;;;;;;;5055142;28;45329;-80
2022/03/25 09:35:16;;;;;;;;;62.00;50.25;;;;;;;;5042258;28;45388;-79
2022/03/25 09:37:43;;;;;;;;;63.75;48.25;;;;;;;;5054029;28;45367;-80
2022/03/25 09:40:10;;;;;;;;;59.50;47.00;;;;;;;;5056336;28;47114;-79
2022/03/25 09:42:37;;;;;;;;;64.25;49.75;;;;;;;;5043525;28;45485;-82
2022/03/25 09:45:03;;;;;;;;;66.25;50.50;;;;;;;;5056927;28;45462;-82
2022/03/25 09:47:32;;;;;;;;;63.00;49.50;;;;;;;;5048695;28;45355;-80
2022/03/25 09:49:57;;;;;;;;;73.75;57.25;;;;;;;;5047432;28;46209;-89
2022/03/25 09:52:23;;;;;;;;;63.00;50.50;;;;;;;;5052305;28;45257;-83
2022/03/25 09:54:48;;;;;;;;;62.75;48.25;;;;;;;;5056601;28;45408;-79
2022/03/25 09:57:13;;;;;;;;;60.25;47.50;;;;;;;;5057259;28;45299;-83
2022/03/25 09:59:39;;;;;;;;;65.50;48.25;;;;;;;;5039594;28;47160;-80
2022/03/25 10:02:04;;;;;;;;;65.25;51.50;;;;;;;;5044419;28;45451;-81
2022/03/25 10:04:45;;;;;;;;;60.75;46.75;;;;;;;;5045229;28;45244;-83
2022/03/25 10:07:33;;;;;;;;;63.00;48.00;;;;;;;;5044514;28;45477;-81
2022/03/25 10:10:06;;;;;;;;;70.00;53.75;;;;;;;;5047137;28;47140;-81
2022/03/25 10:12:32;;;;;;;;;66.00;51.50;;;;;;;;5055894;28;45536;-81
2022/03/25 10:15:14;;;;;;;;;67.00;49.00;;;;;;;;5055675;28;45505;-82
2022/03/25 10:17:50;;;;;;;;;65.00;50.00;;;;;;;;5052693;28;45359;-81
2022/03/25 10:20:16;;;;;;;;;55.75;39.50;;;;;;;;5054448;28;45760;-82
2022/03/25 10:23:00;;;;;;;;;64.50;48.75;;;;;;;;5047273;28;45313;-81
2022/03/25 10:25:31;;;;;;;;;63.00;48.25;;;;;;;;5032723;28;45422;-80
2022/03/25 10:27:57;;;;;;;;;61.50;50.00;;;;;;;;5055936;28;45315;-82
2022/03/25 10:30:38;;;;;;;;;67.50;53.00;;;;;;;;5041662;28;46252;-81
2022/03/25 10:33:07;;;;;;;;;68.75;51.50;;;;;;;;5057158;28;45534;-83
2022/03/25 10:35:32;;;;;;;;;63.75;49.00;;;;;;;;5055525;28;45370;-82
2022/03/25 10:37:58;;;;;;;;;62.00;48.25;;;;;;;;5054454;28;45506;-82
2022/03/25 10:40:23;;;;;;;;;68.00;51.00;;;;;;;;5048345;28;45621;-82
2022/03/25 10:43:08;;;;;;;;;65.00;51.25;;;;;;;;5043054;28;45400;-83
2022/03/25 10:45:39;;;;;;;;;59.75;49.00;;;;;;;;5054596;28;45573;-84
2022/03/25 10:48:11;;;;;;;;;58.75;44.75;;;;;;;;5059014;28;44958;-80
2022/03/25 10:50:53;;;;;;;;;62.00;48.75;;;;;;;;5038600;28;46124;-83
2022/03/25 10:53:20;;;;;;;;;62.25;49.50;;;;;;;;5043259;28;45298;-84
2022/03/25 10:55:52;;;;;;;;;50.75;40.00;;;;;;;;5045130;28;45280;-84
2022/03/25 10:58:17;;;;;;;;;59.50;45.50;;;;;;;;5050296;28;45351;-80
2022/03/25 11:00:43;;;;;;;;;63.00;50.25;;;;;;;;5054314;28;46290;-81
2022/03/25 11:03:08;;;;;;;;;57.25;44.75;;;;;;;;5055109;28;45539;-82
2022/03/25 11:05:34;;;;;;;;;57.50;46.75;;;;;;;;5037960;28;45755;-83
2022/03/25 11:08:00;;;;;;;;;57.50;46.00;;;;;;;;5043557;28;45531;-85
2022/03/25 11:10:25;;;;;;;;;62.25;47.75;;;;;;;;5042530;28;47553;-83
2022/03/25 11:12:51;;;;;;;;;58.00;45.75;;;;;;;;5044784;28;45422;-83
2022/03/25 11:15:20;;;;;;;;;59.25;47.25;;;;;;;;5054277;28;45381;-82
2022/03/25 11:17:45;;;;;;;;;58.75;45.75;;;;;;;;5038549;28;45594;-82
2022/03/25 11:20:12;;;;;;;;;63.25;49.50;;;;;;;;5042217;28;46674;-83
2022/03/25 11:22:41;;;;;;;;;57.75;45.50;;;;;;;;5051288;28;45473;-83
2022/03/25 11:25:10;;;;;;;;;56.00;44.25;;;;;;;;5053640;28;45434;-82
2022/03/25 11:27:37;;;;;;;;;57.75;46.50;;;;;;;;5054087;28;45554;-81
2022/03/25 11:30:04;;;;;;;;;61.25;47.50;;;;;;;;5054157;28;46630;-81
2022/03/25 11:32:29;;;;;;;;;59.25;45.50;;;;;;;;5054759;28;45292;-81
2022/03/25 11:34:54;;;;;;;;;57.75;45.25;;;;;;;;5055476;28;45383;-82
2022/03/25 11:37:20;;;;;;;;;55.25;43.75;;;;;;;;5032590;28;45774;-80
2022/03/25 11:39:45;;;;;;;;;54.75;43.75;;;;;;;;5053552;28;45430;-82
2022/03/25 11:42:29;;;;;;;;;55.75;45.25;;;;;;;;5038263;28;45370;-81
2022/03/25 11:45:13;;;;;;;;;54.00;43.25;;;;;;;;5037888;28;45350;-81
2022/03/25 11:47:38;;;;;;;;;46.00;37.00;;;;;;;;5050496;28;45344;-81
2022/03/25 11:50:30;;;;;;;;;54.50;42.75;;;;;;;;5053138;28;46572;-82
2022/03/25 11:52:55;;;;;;;;;52.50;42.75;;;;;;;;5037376;28;45395;-80
2022/03/25 11:55:20;;;;;;;;;52.00;42.75;;;;;;;;5042429;28;45479;-80
2022/03/25 11:57:46;;;;;;;;;52.25;42.75;;;;;;;;5042801;28;46137;-81
2022/03/25 12:00:28;;;;;;;;;47.50;40.00;;;;;;;;5053817;28;45531;-80
2022/03/25 12:03:03;;;;;;;;;53.50;43.00;;;;;;;;5036867;28;45270;-81
2022/03/25 12:05:29;;;;;;;;;52.00;42.75;;;;;;;;5038636;28;45343;-79
2022/03/25 12:08:24;;;;;;;;;54.75;44.75;;;;;;;;5023450;28;45409;-80
2022/03/25 12:10:50;;;;;;;;;49.25;40.00;;;;;;;;5028271;28;46114;-79
2022/03/25 12:13:16;;;;;;;;;53.50;43.00;;;;;;;;5042097;28;45581;-79
2022/03/25 12:15:45;;;;;;;;;54.00;43.00;;;;;;;;5041961;28;45603;-82
2022/03/25 12:18:28;;;;;;;;;54.75;43.75;;;;;;;;5054036;28;45363;-85
2022/03/25 12:20:54;;;;;;;;;50.50;42.25;;;;;;;;5053434;28;46083;-81
2022/03/25 12:23:19;;;;;;;;;51.00;42.00;;;;;;;;5039486;28;45520;-82
2022/03/25 12:25:45;;;;;;;;;58.25;46.50;;;;;;;;5042277;28;45481;-85
2022/03/25 12:28:10;;;;;;;;;48.75;39.25;;;;;;;;5042390;28;45546;-81
2022/03/25 12:30:36;;;;;;;;;49.25;40.75;;;;;;;;5041119;28;45671;-80
2022/03/25 12:33:08;;;;;;;;;54.25;44.25;;;;;;;;5053251;28;45301;-82
2022/03/25 12:35:35;;;;;;;;;55.50;44.25;;;;;;;;5038933;28;45407;-83
2022/03/25 12:38:21;;;;;;;;;53.75;44.25;;;;;;;;5025943;28;45424;-80
2022/03/25 12:40:48;;;;;;;;;57.25;45.00;;;;;;;;5052896;28;46324;-80
2022/03/25 12:43:13;;;;;;;;;50.25;41.50;;;;;;;;5049787;28;45436;-83
2022/03/25 12:45:44;;;;;;;;;53.50;43.50;;;;;;;;5042869;28;45477;-83
2022/03/25 12:48:11;;;;;;;;;51.00;42.75;;;;;;;;5044674;28;45350;-85
2022/03/25 12:50:38;;;;;;;;;45.25;36.50;;;;;;;;5042163;28;47136;-84
2022/03/25 12:53:04;;;;;;;;;52.00;40.50;;;;;;;;5046081;28;45420;-86
2022/03/25 12:55:30;;;;;;;;;50.25;41.25;;;;;;;;5052761;28;45724;-85
2022/03/25 12:58:05;;;;;;;;;62.50;48.75;;;;;;;;5054989;28;45502;-84
2022/03/25 13:00:32;;;;;;;;;57.75;48.25;;;;;;;;5044176;28;46305;-82
2022/03/25 13:02:58;;;;;;;;;57.00;44.00;;;;;;;;5056006;28;45272;-83
2022/03/25 13:05:25;;;;;;;;;51.75;41.50;;;;;;;;5041978;28;45400;-82
2022/03/25 13:07:56;;;;;;;;;54.00;43.75;;;;;;;;5054093;28;45459;-82
2022/03/25 13:10:21;;;;;;;;;51.00;42.25;;;;;;;;5050283;28;45875;-83
2022/03/25 13:12:54;;;;;;;;;55.50;44.50;;;;;;;;5045710;28;45448;-83
2022/03/25 13:15:23;;;;;;;;;54.00;43.50;;;;;;;;5055920;28;45424;-82
2022/03/25 13:17:50;;;;;;;;;52.25;41.50;;;;;;;;5039463;28;45380;-83
2022/03/25 13:20:17;;;;;;;;;53.75;42.50;;;;;;;;5042416;28;46230;-83
2022/03/25 13:23:00;;;;;;;;;55.25;44.00;;;;;;;;5033989;28;45202;-82
2022/03/25 13:25:28;;;;;;;;;53.25;43.50;;;;;;;;5049761;28;45561;-83
2022/03/25 13:27:54;;;;;;;;;50.00;41.50;;;;;;;;5046636;28;45264;-83
2022/03/25 13:30:20;;;;;;;;;50.75;41.50;;;;;;;;5055725;28;45228;-83
2022/03/25 13:32:45;;;;;;;;;50.75;41.00;;;;;;;;5039917;28;45337;-84
2022/03/25 13:35:13;;;;;;;;;47.25;39.00;;;;;;;;5044560;28;45523;-84
2022/03/25 13:37:38;;;;;;;;;46.75;40.00;;;;;;;;5044629;28;45503;-84
2022/03/25 13:40:24;;;;;;;;;44.00;37.75;;;;;;;;5045158;28;46041;-84
2022/03/25 13:42:53;;;;;;;;;49.25;40.75;;;;;;;;5044045;28;45525;-83
2022/03/25 13:45:18;;;;;;;;;49.75;40.50;;;;;;;;5041588;28;45279;-82
2022/03/25 13:47:43;;;;;;;;;50.25;41.00;;;;;;;;5040477;28;45430;-82
2022/03/25 13:50:12;;;;;;;;;51.25;40.75;;;;;;;;5056227;28;46796;-82
2022/03/25 13:52:38;;;;;;;;;49.75;40.00;;;;;;;;5046942;28;45421;-83
2022/03/25 13:55:13;;;;;;;;;50.00;40.00;;;;;;;;5047419;28;45405;-82
2022/03/25 13:57:39;;;;;;;;;53.00;42.00;;;;;;;;5056013;28;45808;-82
2022/03/25 14:00:09;;;;;;;;;47.50;39.25;;;;;;;;5038889;28;47031;-83
2022/03/25 14:02:34;;;;;;;;;27.00;22.25;;;;;;;;5055912;28;45288;-83
2022/03/25 14:04:59;;;;;;;;;49.25;39.50;;;;;;;;5055244;28;45409;-83
2022/03/25 14:07:25;;;;;;;;;43.00;35.50;;;;;;;;5055500;28;45360;-83
2022/03/25 14:10:02;;;;;;;;;46.25;37.00;;;;;;;;5054320;28;45650;-83
2022/03/25 14:12:27;;;;;;;;;45.50;36.50;;;;;;;;5043148;28;45604;-84
2022/03/25 14:15:11;;;;;;;;;41.50;34.00;;;;;;;;5055988;28;45964;-83
2022/03/25 14:17:37;;;;;;;;;46.00;38.00;;;;;;;;5051943;28;45488;-82
2022/03/25 14:20:09;;;;;;;;;51.25;41.25;;;;;;;;5056320;28;46203;-83
2022/03/25 14:22:38;;;;;;;;;50.00;41.25;;;;;;;;5056019;28;46000;-84